Time;durP1;ratioP1;P1;durP2;ratioP2;P2;SDS_P1;SDS_P2;PMS_P1;PMS_P2;Temp;Humidity;BMP_temperature;BMP_pressure;BME280_temperature;BME280_humidity;BME280_pressure;Samples;Min_cycle;Max_cycle;Signal;HPM_P1;HPM_P2
2024/04/13 00:01:31;;;;;;;6.97;2.53;;;;;;;;;;5509553;26;19998;-54
2024/04/13 00:03:58;;;;;;;6.93;2.83;;;;;;;;;;5510433;26;20051;-58
2024/04/13 00:06:23;;;;;;;;;;;;;;;;;;5511214;26;19998;-57
2024/04/13 00:08:48;;;;;;;5.35;2.85;;;;;;;;;;5509616;26;19938;-56
2024/04/13 00:11:13;;;;;;;6.10;2.77;;;;;;;;;;5509607;26;20002;-56
2024/04/13 00:13:39;;;;;;;7.90;2.30;;;;;;;;;;5510485;26;20002;-56
2024/04/13 00:16:05;;;;;;;4.65;2.40;;;;;;;;;;5510481;26;20002;-57
2024/04/13 00:18:33;;;;;;;6.43;2.95;;;;;;;;;;5486419;26;20002;-54
2024/04/13 00:20:59;;;;;;;6.87;2.67;;;;;;;;;;5510198;26;20013;-55
2024/04/13 00:23:25;;;;;;;6.70;2.53;;;;;;;;;;5510634;26;20275;-55
2024/04/13 00:25:51;;;;;;;6.25;2.47;;;;;;;;;;5510572;26;20009;-56
2024/04/13 00:28:17;;;;;;;9.75;2.92;;;;;;;;;;5510716;26;20009;-58
2024/04/13 00:30:42;;;;;;;7.50;2.80;;;;;;;;;;5489184;26;20014;-57
2024/04/13 00:33:09;;;;;;;6.05;2.97;;;;;;;;;;5510794;26;20013;-57
2024/04/13 00:35:35;;;;;;;6.10;3.37;;;;;;;;;;5509746;26;20010;-58
2024/04/13 00:38:02;;;;;;;10.57;3.70;;;;;;;;;;5510560;26;20002;-58
2024/04/13 00:40:28;;;;;;;8.80;3.60;;;;;;;;;;5509953;26;20012;-54
2024/04/13 00:43:04;;;;;;;6.80;3.08;;;;;;;;;;5510325;26;20223;-57
2024/04/13 00:45:42;;;;;;;7.70;3.08;;;;;;;;;;5509872;26;19999;-56
2024/04/13 00:48:11;;;;;;;10.30;3.40;;;;;;;;;;5510715;26;20008;-57
2024/04/13 00:50:38;;;;;;;8.87;3.07;;;;;;;;;;5509901;26;20013;-55
2024/04/13 00:53:04;;;;;;;7.43;3.47;;;;;;;;;;5509897;26;20231;-56
2024/04/13 00:55:29;;;;;;;7.88;3.35;;;;;;;;;;5509917;26;20327;-57
2024/04/13 00:57:57;;;;;;;6.85;3.25;;;;;;;;;;5509697;26;20010;-54
2024/04/13 01:00:23;;;;;;;7.30;3.30;;;;;;;;;;5510427;26;20023;-57
2024/04/13 01:02:49;;;;;;;6.35;3.28;;;;;;;;;;5510143;26;20216;-57
2024/04/13 01:05:15;;;;;;;8.18;2.92;;;;;;;;;;5510052;26;20016;-53
2024/04/13 01:07:40;;;;;;;4.97;3.20;;;;;;;;;;5504003;26;20002;-56
2024/04/13 01:10:08;;;;;;;5.25;2.80;;;;;;;;;;5496275;26;20009;-57
2024/04/13 01:12:35;;;;;;;4.83;2.93;;;;;;;;;;5508244;26;20009;-54
2024/04/13 01:15:00;;;;;;;6.93;3.65;;;;;;;;;;5509789;26;20232;-54
2024/04/13 01:17:26;;;;;;;9.60;3.83;;;;;;;;;;5508482;26;20017;-54
2024/04/13 01:19:51;;;;;;;4.95;2.85;;;;;;;;;;5508699;26;19998;-54
2024/04/13 01:22:21;;;;;;;;;;;;;;;;;;5509679;26;20017;-57
2024/04/13 01:24:46;;;;;;;6.87;3.00;;;;;;;;;;5509470;26;19932;-57
2024/04/13 01:27:12;;;;;;;6.17;3.37;;;;;;;;;;5508182;26;20263;-57
2024/04/13 01:29:38;;;;;;;5.80;2.90;;;;;;;;;;5508198;26;20055;-55
2024/04/13 01:32:04;;;;;;;7.95;3.25;;;;;;;;;;5509463;26;20002;-53
2024/04/13 01:34:30;;;;;;;5.93;3.63;;;;;;;;;;5509549;26;20002;-55
2024/04/13 01:36:56;;;;;;;5.95;2.90;;;;;;;;;;5509114;26;20227;-57
2024/04/13 01:39:21;;;;;;;8.25;3.67;;;;;;;;;;5509317;26;20003;-54
2024/04/13 01:41:51;;;;;;;5.82;3.03;;;;;;;;;;5509293;26;20002;-55
2024/04/13 01:44:17;;;;;;;6.50;2.90;;;;;;;;;;5509048;26;20002;-56
2024/04/13 01:46:42;;;;;;;8.27;3.10;;;;;;;;;;5491559;26;20302;-57
2024/04/13 01:49:08;;;;;;;7.00;3.20;;;;;;;;;;5487732;26;20019;-56
2024/04/13 01:51:34;;;;;;;8.02;3.25;;;;;;;;;;5509230;26;19998;-57
2024/04/13 01:54:00;;;;;;;8.55;3.00;;;;;;;;;;5507894;26;20013;-53
2024/04/13 01:56:26;;;;;;;6.30;3.17;;;;;;;;;;5485772;26;20044;-57
2024/04/13 01:58:52;;;;;;;6.40;2.85;;;;;;;;;;5491670;26;19995;-53
2024/04/13 02:01:17;;;;;;;9.23;2.88;;;;;;;;;;5485375;26;20002;-55
2024/04/13 02:03:43;;;;;;;6.10;3.83;;;;;;;;;;5510135;26;20017;-56
2024/04/13 02:06:09;;;;;;;8.75;2.95;;;;;;;;;;5512441;26;20013;-56
2024/04/13 02:08:34;;;;;;;8.30;3.33;;;;;;;;;;5501111;26;20002;-55
2024/04/13 02:11:00;;;;;;;5.40;2.83;;;;;;;;;;5512726;26;20002;-54
2024/04/13 02:13:26;;;;;;;7.70;3.50;;;;;;;;;;5512194;26;20009;-53
2024/04/13 02:15:52;;;;;;;6.43;3.55;;;;;;;;;;5487968;26;20009;-56
2024/04/13 02:18:17;;;;;;;5.30;2.95;;;;;;;;;;5504882;26;19995;-55
2024/04/13 02:20:43;;;;;;;6.07;3.07;;;;;;;;;;5512589;26;19999;-53
2024/04/13 02:23:09;;;;;;;5.82;3.15;;;;;;;;;;5512089;26;19994;-56
2024/04/13 02:25:36;;;;;;;6.88;3.20;;;;;;;;;;5512250;26;19995;-56
2024/04/13 02:28:05;;;;;;;5.97;2.63;;;;;;;;;;5511992;26;19998;-57
2024/04/13 02:30:30;;;;;;;8.47;3.57;;;;;;;;;;5511880;26;20327;-54
2024/04/13 02:32:57;;;;;;;6.20;2.97;;;;;;;;;;5512455;26;20239;-53
2024/04/13 02:35:23;;;;;;;5.67;3.13;;;;;;;;;;5512014;26;20012;-57
2024/04/13 02:37:49;;;;;;;5.25;3.25;;;;;;;;;;5511998;26;20219;-54
2024/04/13 02:40:16;;;;;;;6.47;3.15;;;;;;;;;;5512493;26;19998;-53
2024/04/13 02:42:42;;;;;;;6.20;3.57;;;;;;;;;;5511871;26;20017;-57
2024/04/13 02:45:10;;;;;;;6.20;3.38;;;;;;;;;;5512466;26;20235;-56
2024/04/13 02:47:35;;;;;;;8.07;3.47;;;;;;;;;;5511229;26;20011;-54
2024/04/13 02:50:00;;;;;;;9.02;3.70;;;;;;;;;;5512272;26;20235;-56
2024/04/13 02:52:28;;;;;;;6.70;3.33;;;;;;;;;;5511903;26;20017;-53
2024/04/13 02:54:53;;;;;;;6.70;3.07;;;;;;;;;;5512290;26;19998;-56
2024/04/13 02:57:18;;;;;;;4.87;3.23;;;;;;;;;;5511820;26;20290;-55
2024/04/13 02:59:44;;;;;;;6.05;2.83;;;;;;;;;;5511840;26;20235;-55
2024/04/13 03:02:12;;;;;;;9.90;4.13;;;;;;;;;;5512162;26;20042;-56
2024/04/13 03:04:38;;;;;;;7.03;3.33;;;;;;;;;;5511195;26;20006;-56
2024/04/13 03:07:03;;;;;;;10.15;3.38;;;;;;;;;;5511726;26;20275;-54
2024/04/13 03:09:29;;;;;;;7.63;3.53;;;;;;;;;;5510989;26;19998;-55
2024/04/13 03:11:56;;;;;;;5.85;3.15;;;;;;;;;;5511710;26;20040;-54
2024/04/13 03:14:22;;;;;;;6.43;3.27;;;;;;;;;;5501687;26;20015;-56
2024/04/13 03:16:47;;;;;;;5.45;3.30;;;;;;;;;;5511107;26;20317;-57
2024/04/13 03:19:16;;;;;;;7.13;3.42;;;;;;;;;;5511297;26;20002;-57
2024/04/13 03:21:41;;;;;;;9.83;3.43;;;;;;;;;;5511694;26;20013;-55
2024/04/13 03:24:07;;;;;;;9.20;3.20;;;;;;;;;;5510082;26;20228;-57
2024/04/13 03:26:33;;;;;;;6.85;3.35;;;;;;;;;;5511449;26;20006;-57
2024/04/13 03:28:59;;;;;;;6.55;2.72;;;;;;;;;;5504622;26;20010;-55
2024/04/13 03:31:25;;;;;;;10.45;3.20;;;;;;;;;;5475210;26;20017;-55
2024/04/13 03:33:50;;;;;;;5.82;3.28;;;;;;;;;;5510065;26;19998;-53
2024/04/13 03:36:16;;;;;;;6.35;3.00;;;;;;;;;;5511736;26;20006;-57
2024/04/13 03:38:41;;;;;;;5.37;3.03;;;;;;;;;;5511108;26;20029;-56
2024/04/13 03:41:07;;;;;;;8.73;3.13;;;;;;;;;;5490155;26;19999;-56
2024/04/13 03:43:33;;;;;;;7.38;3.15;;;;;;;;;;5509638;26;20008;-56
2024/04/13 03:45:59;;;;;;;7.47;3.28;;;;;;;;;;5511723;26;19998;-56
2024/04/13 03:48:24;;;;;;;7.53;3.15;;;;;;;;;;5510883;26;20013;-56
2024/04/13 03:50:50;;;;;;;5.93;3.60;;;;;;;;;;5511736;26;20005;-54
2024/04/13 03:53:15;;;;;;;5.63;3.08;;;;;;;;;;5496709;26;20006;-53
2024/04/13 03:55:41;;;;;;;6.90;3.50;;;;;;;;;;5511001;26;20010;-52
2024/04/13 03:58:06;;;;;;;7.13;3.65;;;;;;;;;;5510893;26;20009;-55
2024/04/13 04:00:32;;;;;;;6.78;2.83;;;;;;;;;;5510942;26;20017;-56
2024/04/13 04:02:57;;;;;;;5.82;3.03;;;;;;;;;;5511332;26;20002;-56
2024/04/13 04:05:23;;;;;;;8.80;3.30;;;;;;;;;;5510621;26;20002;-57
2024/04/13 04:07:49;;;;;;;6.47;3.10;;;;;;;;;;5497127;26;20003;-57
2024/04/13 04:10:14;;;;;;;7.20;3.72;;;;;;;;;;5498565;26;20002;-55
2024/04/13 04:12:40;;;;;;;7.03;3.22;;;;;;;;;;5509080;26;20073;-57
2024/04/13 04:15:06;;;;;;;6.70;3.17;;;;;;;;;;5510578;26;20016;-56
2024/04/13 04:17:31;;;;;;;8.05;3.35;;;;;;;;;;5508940;26;19998;-56
2024/04/13 04:19:57;;;;;;;8.05;3.22;;;;;;;;;;5509431;26;20017;-54
2024/04/13 04:22:22;;;;;;;6.88;3.25;;;;;;;;;;5511189;26;20005;-56
2024/04/13 04:24:47;;;;;;;6.93;3.53;;;;;;;;;;5508526;26;19994;-57
2024/04/13 04:27:13;;;;;;;7.32;3.17;;;;;;;;;;5510266;26;19994;-57
2024/04/13 04:29:40;;;;;;;8.47;3.77;;;;;;;;;;5509988;26;20038;-57
2024/04/13 04:32:06;;;;;;;9.37;3.30;;;;;;;;;;5508535;26;20005;-56
2024/04/13 04:34:32;;;;;;;8.80;3.15;;;;;;;;;;5508157;26;20219;-56
2024/04/13 04:36:57;;;;;;;6.65;3.38;;;;;;;;;;5510809;26;20001;-53
2024/04/13 04:39:23;;;;;;;6.82;3.55;;;;;;;;;;5501405;26;19990;-59
2024/04/13 04:41:48;;;;;;;7.93;3.60;;;;;;;;;;5510885;26;20043;-57
2024/04/13 04:44:14;;;;;;;9.32;2.85;;;;;;;;;;5510580;26;20519;-56
2024/04/13 04:46:39;;;;;;;8.68;3.70;;;;;;;;;;5510851;26;20006;-58
2024/04/13 04:49:05;;;;;;;6.20;3.25;;;;;;;;;;5509742;26;19994;-56
2024/04/13 04:51:31;;;;;;;10.95;3.80;;;;;;;;;;5510273;26;20068;-56
2024/04/13 04:53:58;;;;;;;7.95;3.58;;;;;;;;;;5510279;26;19998;-56
2024/04/13 04:56:25;;;;;;;8.40;3.67;;;;;;;;;;5510287;26;19994;-54
2024/04/13 04:58:51;;;;;;;5.17;3.13;;;;;;;;;;5510409;26;20005;-55
2024/04/13 05:01:17;;;;;;;7.45;3.45;;;;;;;;;;5510187;26;20251;-58
2024/04/13 05:03:43;;;;;;;11.43;4.30;;;;;;;;;;5509787;26;20002;-51
2024/04/13 05:06:09;;;;;;;6.95;3.25;;;;;;;;;;5510430;26;20004;-56
2024/04/13 05:08:35;;;;;;;8.93;4.00;;;;;;;;;;5505759;26;19994;-56
2024/04/13 05:11:00;;;;;;;7.22;3.85;;;;;;;;;;5510173;26;20081;-55
2024/04/13 05:13:26;;;;;;;6.85;3.58;;;;;;;;;;5509682;26;19990;-56
2024/04/13 05:15:52;;;;;;;9.43;3.90;;;;;;;;;;5510396;26;20030;-56
2024/04/13 05:18:17;;;;;;;10.95;4.50;;;;;;;;;;5509326;26;20059;-57
2024/04/13 05:20:45;;;;;;;8.83;4.07;;;;;;;;;;5509606;26;20153;-56
2024/04/13 05:23:11;;;;;;;9.27;4.07;;;;;;;;;;5509717;26;20048;-57
2024/04/13 05:25:36;;;;;;;7.55;4.13;;;;;;;;;;5509758;26;20223;-55
2024/04/13 05:28:02;;;;;;;9.32;4.22;;;;;;;;;;5509908;26;20030;-57
2024/04/13 05:30:28;;;;;;;7.45;4.28;;;;;;;;;;5509526;26;20018;-56
2024/04/13 05:32:53;;;;;;;11.73;5.20;;;;;;;;;;5510052;26;19994;-57
2024/04/13 05:35:19;;;;;;;12.02;4.50;;;;;;;;;;5509908;26;20060;-55
2024/04/13 05:37:45;;;;;;;10.20;4.43;;;;;;;;;;5508105;26;20048;-56
2024/04/13 05:40:12;;;;;;;9.35;4.85;;;;;;;;;;5508751;26;20360;-56
2024/04/13 05:42:38;;;;;;;9.10;5.33;;;;;;;;;;5509640;26;19998;-57
2024/04/13 05:45:04;;;;;;;9.50;4.33;;;;;;;;;;5508576;26;20275;-57
2024/04/13 05:47:29;;;;;;;;;;;;;;;;;;5509968;26;20026;-57
2024/04/13 05:49:55;;;;;;;11.90;4.82;;;;;;;;;;5509391;26;19969;-55
2024/04/13 05:52:20;;;;;;;9.95;4.63;;;;;;;;;;5509449;26;19990;-54
2024/04/13 05:54:46;;;;;;;8.90;4.70;;;;;;;;;;5509496;26;20002;-56
2024/04/13 05:57:12;;;;;;;7.80;4.85;;;;;;;;;;5509148;26;20002;-54
2024/04/13 05:59:38;;;;;;;12.27;5.65;;;;;;;;;;5508515;26;19994;-59
2024/04/13 06:02:03;;;;;;;10.88;5.28;;;;;;;;;;5509259;26;20018;-56
2024/04/13 06:04:29;;;;;;;9.98;5.30;;;;;;;;;;5508826;26;20049;-57
2024/04/13 06:06:55;;;;;;;14.13;6.13;;;;;;;;;;5509348;26;20040;-53
2024/04/13 06:09:20;;;;;;;13.32;6.00;;;;;;;;;;5508553;26;19990;-56
2024/04/13 06:11:45;;;;;;;10.07;5.82;;;;;;;;;;5509192;26;19990;-56
2024/04/13 06:14:11;;;;;;;12.03;6.80;;;;;;;;;;5508913;26;20002;-58
2024/04/13 06:16:36;;;;;;;11.45;5.35;;;;;;;;;;5508899;26;20005;-54
2024/04/13 06:19:03;;;;;;;13.73;6.55;;;;;;;;;;5508696;26;19991;-57
2024/04/13 06:21:28;;;;;;;12.25;6.50;;;;;;;;;;5508654;26;19994;-56
2024/04/13 06:23:53;;;;;;;14.77;6.63;;;;;;;;;;5508963;26;20039;-53
2024/04/13 06:26:19;;;;;;;11.70;6.05;;;;;;;;;;5508741;26;20357;-57
2024/04/13 06:28:44;;;;;;;16.37;6.50;;;;;;;;;;5508334;26;19994;-54
2024/04/13 06:31:10;;;;;;;14.07;6.70;;;;;;;;;;5505758;26;19994;-53
2024/04/13 06:33:36;;;;;;;17.83;6.90;;;;;;;;;;5508668;26;19994;-57
2024/04/13 06:36:01;;;;;;;12.38;6.82;;;;;;;;;;5508188;26;20009;-52
2024/04/13 06:38:27;;;;;;;15.30;7.30;;;;;;;;;;5507924;26;20009;-56
2024/04/13 06:40:53;;;;;;;13.70;6.32;;;;;;;;;;5508359;26;20002;-53
2024/04/13 06:43:19;;;;;;;14.30;6.75;;;;;;;;;;5507921;26;20011;-54
2024/04/13 06:45:44;;;;;;;16.50;7.90;;;;;;;;;;5508721;26;19998;-56
2024/04/13 06:48:09;;;;;;;15.10;8.05;;;;;;;;;;5508168;26;20059;-55
2024/04/13 06:50:35;;;;;;;15.25;9.02;;;;;;;;;;5510672;26;20027;-57
2024/04/13 06:53:00;;;;;;;15.55;8.40;;;;;;;;;;5512100;26;20002;-56
2024/04/13 06:55:26;;;;;;;16.92;8.20;;;;;;;;;;5511208;26;20002;-55
2024/04/13 06:57:51;;;;;;;17.95;8.75;;;;;;;;;;5511669;26;20002;-57
2024/04/13 07:00:17;;;;;;;15.55;8.80;;;;;;;;;;5509377;26;20036;-57
2024/04/13 07:02:44;;;;;;;18.83;9.03;;;;;;;;;;5511896;26;20002;-57
2024/04/13 07:05:09;;;;;;;22.83;9.90;;;;;;;;;;5511749;26;20010;-57
2024/04/13 07:07:36;;;;;;;17.98;9.20;;;;;;;;;;5511948;26;19998;-55
2024/04/13 07:10:02;;;;;;;23.23;11.00;;;;;;;;;;5511524;26;20010;-58
2024/04/13 07:12:27;;;;;;;23.33;10.38;;;;;;;;;;5510441;26;20013;-57
2024/04/13 07:14:53;;;;;;;15.53;9.50;;;;;;;;;;5511979;26;20014;-57
2024/04/13 07:17:19;;;;;;;17.07;10.17;;;;;;;;;;5511410;26;20002;-57
2024/04/13 07:19:44;;;;;;;24.93;11.33;;;;;;;;;;5503142;26;19994;-57
2024/04/13 07:22:10;;;;;;;22.88;9.25;;;;;;;;;;5511415;26;19994;-57
2024/04/13 07:24:36;;;;;;;17.88;9.68;;;;;;;;;;5504370;26;19990;-57
2024/04/13 07:27:02;;;;;;;17.02;10.25;;;;;;;;;;5511868;26;20009;-54
2024/04/13 07:29:27;;;;;;;17.92;10.07;;;;;;;;;;5510746;26;19994;-55
2024/04/13 07:31:53;;;;;;;19.73;9.87;;;;;;;;;;5511602;26;20002;-58
2024/04/13 07:34:18;;;;;;;21.13;9.73;;;;;;;;;;5509575;26;19998;-56
2024/04/13 07:36:44;;;;;;;15.57;8.83;;;;;;;;;;5511117;26;20008;-56
2024/04/13 07:39:11;;;;;;;18.38;8.82;;;;;;;;;;5510654;26;20009;-54
2024/04/13 07:41:36;;;;;;;18.03;8.70;;;;;;;;;;5499003;26;20469;-56
2024/04/13 07:44:01;;;;;;;19.37;8.40;;;;;;;;;;5509225;26;20028;-58
2024/04/13 07:46:27;;;;;;;13.47;7.37;;;;;;;;;;5510828;26;20043;-56
2024/04/13 07:48:52;;;;;;;11.85;7.55;;;;;;;;;;5510553;26;20005;-54
2024/04/13 07:51:18;;;;;;;13.98;6.68;;;;;;;;;;5510628;26;20009;-56
2024/04/13 07:53:43;;;;;;;14.05;6.97;;;;;;;;;;5495374;26;20005;-54
2024/04/13 07:56:09;;;;;;;12.80;7.07;;;;;;;;;;5506893;26;20001;-53
2024/04/13 07:58:34;;;;;;;15.37;7.10;;;;;;;;;;5509542;26;20009;-56
2024/04/13 08:00:59;;;;;;;11.17;6.83;;;;;;;;;;5508263;26;19998;-54
2024/04/13 08:03:24;;;;;;;14.63;6.90;;;;;;;;;;5510584;26;20002;-53
2024/04/13 08:05:50;;;;;;;10.68;6.57;;;;;;;;;;5510315;26;19994;-53
2024/04/13 08:08:15;;;;;;;13.63;7.07;;;;;;;;;;5510515;26;19998;-55
2024/04/13 08:10:42;;;;;;;13.10;7.00;;;;;;;;;;5510467;26;20079;-56
2024/04/13 08:13:07;;;;;;;9.50;5.93;;;;;;;;;;5510622;26;20013;-57
2024/04/13 08:15:36;;;;;;;15.52;5.85;;;;;;;;;;5508122;26;20001;-56
2024/04/13 08:18:02;;;;;;;15.60;6.57;;;;;;;;;;5510012;26;19998;-56
2024/04/13 08:20:27;;;;;;;14.07;6.90;;;;;;;;;;5510057;26;20009;-55
2024/04/13 08:22:52;;;;;;;12.57;6.43;;;;;;;;;;5510386;26;20267;-56
2024/04/13 08:25:19;;;;;;;12.87;5.93;;;;;;;;;;5510379;26;19994;-57
2024/04/13 08:27:44;;;;;;;16.37;6.93;;;;;;;;;;5510048;26;19994;-56
2024/04/13 08:30:11;;;;;;;12.95;6.13;;;;;;;;;;5510687;26;20024;-56
2024/04/13 08:32:37;;;;;;;12.43;6.37;;;;;;;;;;5507793;26;19998;-57
2024/04/13 08:35:03;;;;;;;;;;;;;;;;;;5510902;26;20004;-58
2024/04/13 08:37:28;;;;;;;14.17;6.93;;;;;;;;;;5479141;26;19924;-55
2024/04/13 08:39:53;;;;;;;14.17;6.07;;;;;;;;;;5509861;26;19994;-55
2024/04/13 08:42:22;;;;;;;14.27;6.95;;;;;;;;;;5510186;26;19998;-57
2024/04/13 08:44:54;;;;;;;16.20;7.73;;;;;;;;;;5510505;26;19991;-56
2024/04/13 08:47:20;;;;;;;14.13;7.43;;;;;;;;;;5509891;26;20008;-57
2024/04/13 08:49:47;;;;;;;13.82;6.60;;;;;;;;;;5510157;26;19998;-57
2024/04/13 08:52:12;;;;;;;16.93;7.40;;;;;;;;;;5510254;26;20047;-57
2024/04/13 08:54:38;;;;;;;13.05;6.43;;;;;;;;;;5500673;26;20007;-54
2024/04/13 08:57:07;;;;;;;14.85;7.45;;;;;;;;;;5504568;26;20010;-56
2024/04/13 08:59:33;;;;;;;18.07;9.50;;;;;;;;;;5509744;26;19998;-56
2024/04/13 09:01:59;;;;;;;;;;;;;;;;;;5510368;26;19998;-55
2024/04/13 09:04:25;;;;;;;15.90;8.67;;;;;;;;;;5509856;26;19931;-55
2024/04/13 09:06:50;;;;;;;15.00;7.53;;;;;;;;;;5510400;26;20027;-54
2024/04/13 09:09:15;;;;;;;17.83;8.25;;;;;;;;;;5509160;26;20013;-55
2024/04/13 09:11:41;;;;;;;24.52;9.52;;;;;;;;;;5508877;26;20009;-53
2024/04/13 09:14:07;;;;;;;15.05;7.60;;;;;;;;;;5509872;26;20006;-56
2024/04/13 09:16:32;;;;;;;17.63;8.88;;;;;;;;;;5508252;26;20009;-57
2024/04/13 09:18:57;;;;;;;20.77;9.13;;;;;;;;;;5509629;26;20486;-57
2024/04/13 09:21:23;;;;;;;15.20;8.32;;;;;;;;;;5509813;26;20061;-55
2024/04/13 09:23:54;;;;;;;14.20;8.15;;;;;;;;;;5509882;26;20018;-58
2024/04/13 09:26:19;;;;;;;16.37;8.83;;;;;;;;;;5509789;26;20013;-57
2024/04/13 09:28:47;;;;;;;18.80;8.00;;;;;;;;;;5509393;26;19994;-55
2024/04/13 09:31:16;;;;;;;17.50;7.78;;;;;;;;;;5509731;26;20005;-56
2024/04/13 09:33:52;;;;;;;15.20;7.70;;;;;;;;;;5496949;26;20069;-56
2024/04/13 09:36:24;;;;;;;18.05;7.65;;;;;;;;;;5491918;26;19998;-58
2024/04/13 09:38:50;;;;;;;14.00;7.47;;;;;;;;;;5509375;26;19994;-57
2024/04/13 09:41:15;;;;;;;;;;;;;;;;;;5509628;26;20005;-51
2024/04/13 09:43:44;;;;;;;15.70;6.80;;;;;;;;;;5509403;26;19940;-57
2024/04/13 09:46:10;;;;;;;13.07;7.50;;;;;;;;;;5508880;26;20043;-58
2024/04/13 09:48:36;;;;;;;13.60;7.10;;;;;;;;;;5509462;26;19998;-54
2024/04/13 09:51:01;;;;;;;;;;;;;;;;;;5489025;26;20051;-56
2024/04/13 09:53:27;;;;;;;13.90;6.17;;;;;;;;;;5509277;26;19931;-57
2024/04/13 09:55:52;;;;;;;;;;;;;;;;;;5488532;26;20010;-56
2024/04/13 09:58:18;;;;;;;13.93;6.40;;;;;;;;;;5509484;26;19931;-56
2024/04/13 10:00:43;;;;;;;;;;;;;;;;;;5509415;26;19998;-56
2024/04/13 10:03:16;;;;;;;11.20;5.47;;;;;;;;;;5509345;26;19924;-56
2024/04/13 10:05:43;;;;;;;15.68;5.97;;;;;;;;;;5495775;26;20002;-57
2024/04/13 10:08:09;;;;;;;11.05;5.32;;;;;;;;;;5509184;26;19998;-54
2024/04/13 10:10:36;;;;;;;11.77;5.97;;;;;;;;;;5508606;26;20010;-52
2024/04/13 10:13:03;;;;;;;14.13;6.00;;;;;;;;;;5498266;26;20010;-57
2024/04/13 10:15:28;;;;;;;13.65;6.05;;;;;;;;;;5502708;26;19998;-55
2024/04/13 10:17:53;;;;;;;;;;;;;;;;;;5509306;26;20006;-57
2024/04/13 10:20:20;;;;;;;11.52;6.43;;;;;;;;;;5508831;26;19923;-53
2024/04/13 10:22:56;;;;;;;12.13;6.28;;;;;;;;;;5489779;26;20003;-57
2024/04/13 10:25:28;;;;;;;14.32;7.38;;;;;;;;;;5510055;26;20006;-56
2024/04/13 10:28:05;;;;;;;15.90;6.95;;;;;;;;;;5512265;26;20022;-54
2024/04/13 10:30:41;;;;;;;18.13;8.80;;;;;;;;;;5509847;26;20047;-57
2024/04/13 10:33:16;;;;;;;14.05;6.70;;;;;;;;;;5511597;26;20017;-55
2024/04/13 10:35:49;;;;;;;14.45;5.75;;;;;;;;;;5511718;26;19998;-56
2024/04/13 10:38:15;;;;;;;13.93;7.22;;;;;;;;;;5511077;26;20006;-55
2024/04/13 10:40:41;;;;;;;13.10;5.53;;;;;;;;;;5511002;26;20002;-56
2024/04/13 10:43:06;;;;;;;18.17;6.70;;;;;;;;;;5511524;26;20026;-56
2024/04/13 10:45:32;;;;;;;12.60;6.25;;;;;;;;;;5512109;26;20002;-56
2024/04/13 10:47:58;;;;;;;11.98;5.78;;;;;;;;;;5511715;26;20456;-51
2024/04/13 10:50:23;;;;;;;10.48;5.78;;;;;;;;;;5511461;26;20010;-54
2024/04/13 10:52:48;;;;;;;9.70;5.05;;;;;;;;;;5511408;26;19994;-55
2024/04/13 10:55:15;;;;;;;11.07;4.72;;;;;;;;;;5511992;26;19995;-56
2024/04/13 10:57:43;;;;;;;12.75;4.80;;;;;;;;;;5508482;26;20002;-56
2024/04/13 11:00:09;;;;;;;8.48;4.60;;;;;;;;;;5511809;26;20013;-55
2024/04/13 11:02:37;;;;;;;12.00;5.97;;;;;;;;;;5506896;26;19999;-52
2024/04/13 11:05:03;;;;;;;12.68;5.22;;;;;;;;;;5510671;26;20028;-54
2024/04/13 11:07:30;;;;;;;9.93;4.38;;;;;;;;;;5511204;26;20002;-53
2024/04/13 11:09:57;;;;;;;11.05;4.90;;;;;;;;;;5511232;26;20006;-59
2024/04/13 11:12:23;;;;;;;8.23;4.20;;;;;;;;;;5510327;26;20119;-54
2024/04/13 11:14:49;;;;;;;9.80;3.90;;;;;;;;;;5511010;26;19994;-56
2024/04/13 11:17:15;;;;;;;7.38;4.28;;;;;;;;;;5510920;26;19994;-57
2024/04/13 11:19:41;;;;;;;6.25;3.63;;;;;;;;;;5509526;26;20002;-57
2024/04/13 11:22:09;;;;;;;8.82;4.47;;;;;;;;;;5501322;26;19987;-57
2024/04/13 11:24:38;;;;;;;10.27;3.97;;;;;;;;;;5498697;26;20046;-58
2024/04/13 11:27:04;;;;;;;14.85;5.00;;;;;;;;;;5511226;26;20002;-55
2024/04/13 11:29:31;;;;;;;10.55;3.95;;;;;;;;;;5510936;26;20009;-56
2024/04/13 11:31:57;;;;;;;13.75;3.50;;;;;;;;;;5511108;26;20005;-55
2024/04/13 11:34:23;;;;;;;9.70;4.78;;;;;;;;;;5510435;26;20002;-56
2024/04/13 11:36:48;;;;;;;10.77;4.43;;;;;;;;;;5508716;26;19998;-57
2024/04/13 11:39:13;;;;;;;12.02;4.53;;;;;;;;;;5510210;26;20004;-55
2024/04/13 11:41:39;;;;;;;10.80;4.93;;;;;;;;;;5505356;26;19998;-56
2024/04/13 11:44:07;;;;;;;12.00;3.70;;;;;;;;;;5510617;26;19998;-53
2024/04/13 11:46:32;;;;;;;15.73;4.45;;;;;;;;;;5510280;26;20043;-57
2024/04/13 11:48:58;;;;;;;10.35;4.47;;;;;;;;;;5509973;26;20006;-55
2024/04/13 11:51:24;;;;;;;6.80;3.80;;;;;;;;;;5499023;26;19999;-61
2024/04/13 11:53:50;;;;;;;9.02;3.58;;;;;;;;;;5506882;26;20029;-58
2024/04/13 11:56:15;;;;;;;15.50;4.90;;;;;;;;;;5509889;26;19994;-59
2024/04/13 11:58:48;;;;;;;12.45;2.58;;;;;;;;;;5508138;26;20013;-54
2024/04/13 12:01:14;;;;;;;7.90;3.42;;;;;;;;;;5510226;26;20002;-55
2024/04/13 12:03:40;;;;;;;14.50;4.47;;;;;;;;;;5510439;26;20121;-55
2024/04/13 12:06:05;;;;;;;16.67;6.85;;;;;;;;;;5510768;26;19998;-57
2024/04/13 12:08:31;;;;;;;14.35;7.88;;;;;;;;;;5509963;26;20002;-56
2024/04/13 12:10:57;;;;;;;8.20;3.95;;;;;;;;;;5509184;26;20014;-56
2024/04/13 12:13:23;;;;;;;8.55;3.30;;;;;;;;;;5510700;26;19998;-56
2024/04/13 12:15:49;;;;;;;9.98;3.88;;;;;;;;;;5504737;26;20013;-56
2024/04/13 12:18:14;;;;;;;10.35;3.38;;;;;;;;;;5507653;26;20047;-58
2024/04/13 12:20:40;;;;;;;8.25;2.80;;;;;;;;;;5508010;26;20060;-57
2024/04/13 12:23:05;;;;;;;12.38;3.58;;;;;;;;;;5509303;26;20002;-56
2024/04/13 12:25:31;;;;;;;7.30;2.50;;;;;;;;;;5495438;26;20021;-56
2024/04/13 12:27:57;;;;;;;9.90;3.85;;;;;;;;;;5510607;26;20006;-57
2024/04/13 12:30:22;;;;;;;6.20;2.85;;;;;;;;;;5510043;26;20077;-58
2024/04/13 12:32:48;;;;;;;9.18;3.33;;;;;;;;;;5510194;26;20009;-57
2024/04/13 12:35:17;;;;;;;6.93;2.63;;;;;;;;;;5495600;26;20009;-55
2024/04/13 12:37:43;;;;;;;11.45;2.45;;;;;;;;;;5508772;26;20013;-57
2024/04/13 12:40:09;;;;;;;7.10;3.83;;;;;;;;;;5510162;26;20052;-57
2024/04/13 12:42:34;;;;;;;8.02;2.50;;;;;;;;;;5510187;26;19998;-58
2024/04/13 12:45:00;;;;;;;9.35;3.10;;;;;;;;;;5510238;26;20018;-57
2024/04/13 12:47:25;;;;;;;7.65;2.97;;;;;;;;;;5509053;26;20068;-56
2024/04/13 12:49:52;;;;;;;18.05;3.17;;;;;;;;;;5510407;26;20010;-57
2024/04/13 12:52:17;;;;;;;5.22;2.78;;;;;;;;;;5510011;26;20022;-58
2024/04/13 12:54:42;;;;;;;11.90;2.88;;;;;;;;;;5510155;26;20121;-57
2024/04/13 12:57:08;;;;;;;7.03;2.75;;;;;;;;;;5510267;26;20076;-58
2024/04/13 12:59:33;;;;;;;9.65;2.50;;;;;;;;;;5509118;26;20002;-55
2024/04/13 13:02:00;;;;;;;5.65;1.67;;;;;;;;;;5510023;26;20026;-58
2024/04/13 13:04:25;;;;;;;11.10;3.17;;;;;;;;;;5509649;26;20002;-56
2024/04/13 13:06:52;;;;;;;10.13;2.13;;;;;;;;;;5510320;26;20017;-57
2024/04/13 13:09:18;;;;;;;2.58;1.63;;;;;;;;;;5509977;26;20028;-56
2024/04/13 13:11:43;;;;;;;5.10;1.70;;;;;;;;;;5509331;26;19998;-58
2024/04/13 13:14:09;;;;;;;9.57;1.90;;;;;;;;;;5509734;26;20013;-59
2024/04/13 13:16:35;;;;;;;5.65;2.45;;;;;;;;;;5509927;26;20010;-58
2024/04/13 13:19:00;;;;;;;4.60;1.90;;;;;;;;;;5486388;26;20018;-55
2024/04/13 13:21:26;;;;;;;6.03;1.77;;;;;;;;;;5509584;26;20001;-57
2024/04/13 13:23:51;;;;;;;10.43;2.35;;;;;;;;;;5509793;26;20002;-57
2024/04/13 13:26:18;;;;;;;7.22;2.20;;;;;;;;;;5508262;26;19998;-58
2024/04/13 13:28:43;;;;;;;6.05;2.30;;;;;;;;;;5507648;26;20028;-58
2024/04/13 13:31:09;;;;;;;8.57;2.55;;;;;;;;;;5508210;26;20006;-58
2024/04/13 13:33:34;;;;;;;6.25;2.30;;;;;;;;;;5509381;26;20058;-56
2024/04/13 13:36:00;;;;;;;8.90;2.55;;;;;;;;;;5509831;26;20029;-58
2024/04/13 13:38:25;;;;;;;4.03;2.08;;;;;;;;;;5498445;26;19999;-57
2024/04/13 13:40:51;;;;;;;10.13;2.60;;;;;;;;;;5495485;26;20002;-58
2024/04/13 13:43:17;;;;;;;8.80;2.70;;;;;;;;;;5509280;26;20006;-59
2024/04/13 13:45:42;;;;;;;5.90;2.08;;;;;;;;;;5509947;26;20030;-58
2024/04/13 13:48:08;;;;;;;5.88;2.47;;;;;;;;;;5509480;26;20059;-57
2024/04/13 13:50:34;;;;;;;9.48;2.58;;;;;;;;;;5509123;26;20006;-54
2024/04/13 13:52:59;;;;;;;6.57;2.10;;;;;;;;;;5508819;26;20050;-55
2024/04/13 13:55:24;;;;;;;9.35;2.47;;;;;;;;;;5509000;26;20009;-55
2024/04/13 13:57:50;;;;;;;7.00;2.40;;;;;;;;;;5508717;26;20017;-58
2024/04/13 14:00:17;;;;;;;6.13;2.35;;;;;;;;;;5511512;26;19998;-58
2024/04/13 14:02:43;;;;;;;9.00;2.03;;;;;;;;;;5512259;26;20434;-58
2024/04/13 14:05:08;;;;;;;10.88;2.65;;;;;;;;;;5512623;26;19998;-59
2024/04/13 14:07:34;;;;;;;6.82;2.38;;;;;;;;;;5511976;26;20023;-59
2024/04/13 14:10:00;;;;;;;4.85;2.03;;;;;;;;;;5512401;26;20017;-59
2024/04/13 14:12:25;;;;;;;6.85;2.22;;;;;;;;;;5511933;26;19994;-59
2024/04/13 14:14:51;;;;;;;10.02;2.30;;;;;;;;;;5512898;26;19997;-59
2024/04/13 14:17:17;;;;;;;5.88;2.35;;;;;;;;;;5511956;26;19990;-58
2024/04/13 14:19:42;;;;;;;9.52;2.15;;;;;;;;;;5512415;26;20162;-56
2024/04/13 14:22:09;;;;;;;6.85;2.33;;;;;;;;;;5511438;26;19995;-58
2024/04/13 14:24:34;;;;;;;9.20;2.65;;;;;;;;;;5511715;26;19994;-59
2024/04/13 14:27:00;;;;;;;5.80;2.33;;;;;;;;;;5511599;26;20019;-58
2024/04/13 14:29:26;;;;;;;7.07;2.40;;;;;;;;;;5512401;26;20006;-59
2024/04/13 14:31:52;;;;;;;5.93;2.05;;;;;;;;;;5512153;26;20006;-58
2024/04/13 14:34:17;;;;;;;6.10;1.90;;;;;;;;;;5511872;26;20044;-57